Terminal Aerodrome Forecast
Issued by NWS Austin/San Antonio, TX

Home | Current Version | Previous Version | Text Only | Print | Product List | Glossary On
Versions: 1 2 3 4 5 6 7 8 9 10 11 12 13 14 15 16 17 18 19 20 21 22 23 24 25 26 27 28 29 30 31 32 33 34 35 36 37 38 39
939
FTUS44 KEWX 201136
TAFAUS
TAF
KAUS 201136Z 2012/2118 22006KT 1SM BR BKN003
      TEMPO 2012/2015 1/4SM FG OVC001
     FM201600 24006KT 3SM BR SCT003
     FM201700 26008KT P6SM SCT250
     FM210000 17005KT P6SM SCT250
     FM210900 19004KT 3SM BR SCT005
     FM211000 20003KT 1/2SM FG BKN003=

USA.gov is the U.S. government's official web portal to all federal, state and local government web resources and services.